createdAt,value
2018-07-14T00:00:18.464Z,8.00
2018-07-14T00:02:48.122Z,6.47
2018-07-14T00:05:17.868Z,6.63
2018-07-14T00:07:48.068Z,7.27
2018-07-14T00:10:19.304Z,6.43
2018-07-14T00:15:51.050Z,6.43
2018-07-14T00:18:21.787Z,6.40
2018-07-14T00:21:10.277Z,6.20
2018-07-14T00:23:40.388Z,6.43
2018-07-14T00:26:10.850Z,6.20
2018-07-14T00:28:40.638Z,13.30
2018-07-14T00:31:12.623Z,6.80
2018-07-14T00:33:42.216Z,6.33
2018-07-14T00:36:11.841Z,7.20
2018-07-14T00:38:41.661Z,8.50
2018-07-14T00:44:20.595Z,6.97
2018-07-14T00:46:50.516Z,6.67
2018-07-14T00:49:20.132Z,6.93
2018-07-14T00:51:49.821Z,7.20
2018-07-14T00:54:19.968Z,7.90
2018-07-14T00:56:49.828Z,7.93
2018-07-14T00:59:20.214Z,7.73
2018-07-14T01:01:50.357Z,10.57
2018-07-14T01:04:19.993Z,6.60
2018-07-14T01:06:50.276Z,6.77
2018-07-14T01:09:40.109Z,9.03
2018-07-14T01:12:10.991Z,9.50
2018-07-14T01:14:41.489Z,6.63
2018-07-14T01:17:11.185Z,8.80
2018-07-14T01:19:42.200Z,7.53
2018-07-14T01:22:12.337Z,6.53
2018-07-14T01:24:47.735Z,8.50
2018-07-14T01:27:17.533Z,7.23
2018-07-14T01:29:47.142Z,7.00
2018-07-14T01:32:17.815Z,6.43
2018-07-14T01:34:47.635Z,7.77
2018-07-14T01:37:17.069Z,7.27
2018-07-14T01:39:46.553Z,7.23
2018-07-14T01:42:15.995Z,6.37
2018-07-14T01:44:45.445Z,7.60
2018-07-14T01:47:14.894Z,7.80
2018-07-14T01:50:05.042Z,6.70
2018-07-14T01:53:23.125Z,7.67
2018-07-14T01:55:52.725Z,7.10
2018-07-14T01:58:39.301Z,7.10
2018-07-14T02:01:09.636Z,8.27
2018-07-14T02:03:39.341Z,9.97
2018-07-14T02:06:13.806Z,10.07
2018-07-14T02:08:43.460Z,7.33
2018-07-14T02:11:13.112Z,7.43
2018-07-14T02:13:42.648Z,7.70
2018-07-14T02:16:12.510Z,8.33
2018-07-14T02:18:41.921Z,9.33
2018-07-14T02:21:11.421Z,6.50
2018-07-14T02:23:40.906Z,7.50
2018-07-14T02:26:19.714Z,7.13
2018-07-14T02:28:49.386Z,7.30
2018-07-14T02:32:35.565Z,7.40
2018-07-14T02:35:05.176Z,6.53
2018-07-14T02:37:34.805Z,8.70
2018-07-14T02:40:09.745Z,6.47
2018-07-14T02:42:39.324Z,6.80
2018-07-14T02:50:40.311Z,9.27
2018-07-14T02:53:10.735Z,7.00
2018-07-14T02:55:40.331Z,6.70
2018-07-14T02:58:10.155Z,6.77
2018-07-14T03:00:40.589Z,7.20
2018-07-14T03:03:16.693Z,7.50
2018-07-14T03:05:46.142Z,9.00
2018-07-14T03:08:15.644Z,6.33
2018-07-14T03:10:45.215Z,6.37
2018-07-14T03:13:20.510Z,6.63
2018-07-14T03:15:50.843Z,6.80
2018-07-14T03:18:20.635Z,7.17
2018-07-14T03:20:50.298Z,7.57
2018-07-14T03:29:25.503Z,7.50
2018-07-14T03:31:55.159Z,6.83
2018-07-14T03:34:24.737Z,6.60
2018-07-14T03:39:47.466Z,6.80
2018-07-14T03:45:24.370Z,7.67
2018-07-14T03:47:53.840Z,8.57
2018-07-14T03:50:23.380Z,7.80
2018-07-14T03:52:53.024Z,7.37
2018-07-14T03:58:16.200Z,8.30
2018-07-14T04:00:45.862Z,7.13
2018-07-14T04:03:15.509Z,10.77
2018-07-14T04:05:45.261Z,7.23
2018-07-14T04:08:14.858Z,7.10
2018-07-14T04:10:44.567Z,7.77
2018-07-14T04:13:14.573Z,6.63
2018-07-14T04:15:44.324Z,8.03
2018-07-14T04:18:13.937Z,6.60
2018-07-14T04:20:43.585Z,7.07
2018-07-14T04:23:20.803Z,7.33
2018-07-14T04:25:50.336Z,7.00
2018-07-14T04:28:19.951Z,6.90
2018-07-14T04:30:49.355Z,7.53
2018-07-14T04:33:24.174Z,7.53
2018-07-14T04:35:53.658Z,8.17
2018-07-14T04:38:23.121Z,7.17
2018-07-14T04:40:52.625Z,6.93
2018-07-14T04:43:38.488Z,6.67
2018-07-14T04:46:08.767Z,9.13
2018-07-14T04:51:44.028Z,7.03
2018-07-14T04:54:14.424Z,6.87
2018-07-14T04:56:43.998Z,7.33
2018-07-14T04:59:27.231Z,6.10
2018-07-14T05:01:58.950Z,7.20
2018-07-14T05:04:30.771Z,10.33
2018-07-14T05:07:01.701Z,8.03
2018-07-14T05:09:32.951Z,9.07
2018-07-14T05:12:02.906Z,7.43
2018-07-14T05:14:33.818Z,7.77
2018-07-14T05:17:03.473Z,11.53
2018-07-14T05:19:39.884Z,6.90
2018-07-14T05:22:10.060Z,7.30
2018-07-14T05:24:45.392Z,7.60
2018-07-14T05:27:16.533Z,7.07
2018-07-14T05:29:46.365Z,7.00
2018-07-14T05:32:16.082Z,7.00
2018-07-14T05:34:45.754Z,9.10
2018-07-14T05:37:15.711Z,9.73
2018-07-14T05:39:45.761Z,6.63
2018-07-14T05:42:15.723Z,7.87
2018-07-14T05:44:45.225Z,7.27
2018-07-14T05:47:15.017Z,6.67
2018-07-14T05:49:44.775Z,6.80
2018-07-14T05:52:16.026Z,6.60
2018-07-14T05:54:55.828Z,7.10
2018-07-14T05:57:26.748Z,8.63
2018-07-14T05:59:57.369Z,8.17
2018-07-14T06:02:26.877Z,11.93
2018-07-14T06:04:56.343Z,9.47
2018-07-14T06:07:26.492Z,7.10
2018-07-14T06:12:37.861Z,9.40
2018-07-14T06:18:00.049Z,8.67
2018-07-14T06:20:29.702Z,7.13
2018-07-14T06:22:59.706Z,8.20
2018-07-14T06:25:29.431Z,8.97
2018-07-14T06:27:59.001Z,8.13
2018-07-14T06:30:28.641Z,7.60
2018-07-14T06:32:58.538Z,8.37
2018-07-14T06:35:28.094Z,10.80
2018-07-14T06:37:58.275Z,8.43
2018-07-14T06:40:27.740Z,8.03
2018-07-14T06:42:57.238Z,9.63
2018-07-14T06:45:26.667Z,8.50
2018-07-14T06:47:57.682Z,8.80
2018-07-14T06:53:02.438Z,10.97
2018-07-14T07:01:19.611Z,9.27
2018-07-14T07:03:49.613Z,8.13
2018-07-14T07:06:19.971Z,8.73
2018-07-14T07:08:49.774Z,7.50
2018-07-14T07:11:20.879Z,7.87
2018-07-14T07:13:50.781Z,6.40
2018-07-14T07:16:20.877Z,8.23
2018-07-14T07:18:51.093Z,8.03
2018-07-14T07:21:20.942Z,8.60
2018-07-14T07:23:50.533Z,8.27
2018-07-14T07:26:22.648Z,10.40
2018-07-14T07:28:52.975Z,9.87
2018-07-14T07:31:22.409Z,8.20
2018-07-14T07:33:52.684Z,8.17
2018-07-14T07:36:22.986Z,9.37
2018-07-14T07:38:52.568Z,7.87
2018-07-14T07:41:22.334Z,9.07
2018-07-14T07:43:51.936Z,11.27
2018-07-14T07:46:23.075Z,8.70
2018-07-14T07:48:52.613Z,8.77
2018-07-14T07:51:22.552Z,7.70
2018-07-14T07:53:52.215Z,7.93
2018-07-14T07:56:26.096Z,9.97
2018-07-14T07:58:55.809Z,8.93
2018-07-14T08:01:30.129Z,8.13
2018-07-14T08:03:59.643Z,6.67
2018-07-14T08:06:30.695Z,8.50
2018-07-14T08:09:00.181Z,12.83
2018-07-14T08:11:29.785Z,8.43
2018-07-14T08:13:59.355Z,7.30
2018-07-14T08:16:35.793Z,7.23
2018-07-14T08:19:05.340Z,5.80
2018-07-14T08:21:34.956Z,5.70
2018-07-14T08:24:04.480Z,7.30
2018-07-14T08:26:53.302Z,8.57
2018-07-14T08:29:22.820Z,8.90
2018-07-14T08:31:53.068Z,9.23
2018-07-14T08:34:23.229Z,7.47
2018-07-14T08:37:06.317Z,8.07
2018-07-14T08:39:35.963Z,7.97
2018-07-14T08:42:05.632Z,6.97
2018-07-14T08:44:35.103Z,6.93
2018-07-14T08:47:23.733Z,5.50
2018-07-14T08:49:53.355Z,6.53
2018-07-14T08:52:23.073Z,6.57
2018-07-14T08:54:52.508Z,4.83
2018-07-14T08:57:21.953Z,7.03
2018-07-14T08:59:51.638Z,7.23
2018-07-14T09:02:33.263Z,4.60
2018-07-14T09:05:02.754Z,7.23
2018-07-14T09:07:32.357Z,5.23
2018-07-14T09:10:01.975Z,4.30
2018-07-14T09:12:31.990Z,6.33
2018-07-14T09:15:01.600Z,5.77
2018-07-14T09:17:31.125Z,6.50
2018-07-14T09:20:00.719Z,9.17
2018-07-14T09:22:30.403Z,6.80
2018-07-14T09:24:59.987Z,6.47
2018-07-14T09:27:51.151Z,5.27
2018-07-14T09:30:20.731Z,5.37
2018-07-14T09:32:50.190Z,8.70
2018-07-14T09:35:19.822Z,5.83
2018-07-14T09:37:53.377Z,6.07
2018-07-14T09:40:22.886Z,5.57
2018-07-14T09:42:52.563Z,5.73
2018-07-14T09:45:24.698Z,4.93
2018-07-14T09:47:54.159Z,4.73
2018-07-14T09:50:23.633Z,4.60
2018-07-14T09:52:53.114Z,5.67
2018-07-14T09:55:22.749Z,6.10
2018-07-14T09:57:52.319Z,5.13
2018-07-14T10:03:15.420Z,4.53
2018-07-14T10:05:44.960Z,5.90
2018-07-14T10:08:14.988Z,4.60
2018-07-14T10:10:44.662Z,5.13
2018-07-14T10:13:30.372Z,5.03
2018-07-14T10:16:00.164Z,4.83
2018-07-14T10:18:29.602Z,6.60
2018-07-14T10:20:59.193Z,4.53
2018-07-14T10:26:30.052Z,4.57
2018-07-14T10:29:00.280Z,3.83
2018-07-14T10:31:30.066Z,4.17
2018-07-14T10:33:59.613Z,4.20
2018-07-14T10:36:36.583Z,6.20
2018-07-14T10:39:07.487Z,6.13
2018-07-14T10:41:37.039Z,5.10
2018-07-14T10:44:06.681Z,4.23
2018-07-14T10:46:36.696Z,5.20
2018-07-14T10:49:06.353Z,3.90
2018-07-14T10:51:41.430Z,4.67
2018-07-14T10:54:12.383Z,4.67
2018-07-14T10:56:41.933Z,5.53
2018-07-14T10:59:11.535Z,3.57
2018-07-14T11:01:41.131Z,4.90
2018-07-14T11:04:12.052Z,4.17
2018-07-14T11:24:19.403Z,4.27
2018-07-14T11:26:49.273Z,4.13
2018-07-14T11:29:18.917Z,4.40
2018-07-14T11:31:48.427Z,5.03
2018-07-14T11:34:22.487Z,3.97
2018-07-14T11:36:52.284Z,4.10
2018-07-14T11:39:22.474Z,4.70
2018-07-14T11:41:52.578Z,3.80
2018-07-14T11:44:34.575Z,3.93
2018-07-14T11:47:04.219Z,4.60
2018-07-14T11:49:33.841Z,3.67
2018-07-14T11:52:03.514Z,5.27
2018-07-14T11:54:43.677Z,4.00
2018-07-14T11:57:13.456Z,4.17
2018-07-14T11:59:43.053Z,4.00
2018-07-14T12:02:12.587Z,3.70
2018-07-14T12:04:43.798Z,4.40
2018-07-14T12:07:13.897Z,5.30
2018-07-14T12:09:43.493Z,4.77
2018-07-14T12:12:13.257Z,4.23
2018-07-14T12:14:42.873Z,3.53
2018-07-14T12:17:12.416Z,3.67
2018-07-14T12:19:43.533Z,3.50
2018-07-14T12:22:13.050Z,3.57
2018-07-14T12:24:42.728Z,3.73
2018-07-14T12:27:12.355Z,4.67
2018-07-14T12:29:41.917Z,4.43
2018-07-14T12:32:11.485Z,4.13
2018-07-14T12:34:43.014Z,4.87
2018-07-14T12:37:12.566Z,3.77
2018-07-14T12:39:42.132Z,3.93
2018-07-14T12:42:11.599Z,3.87
2018-07-14T12:44:41.583Z,6.53
2018-07-14T12:47:16.294Z,6.60
2018-07-14T12:49:46.018Z,3.97
2018-07-14T12:52:17.377Z,7.73
2018-07-14T12:54:48.033Z,4.20
2018-07-14T12:57:19.353Z,4.10
2018-07-14T12:59:49.088Z,4.43
2018-07-14T13:02:18.930Z,3.60
2018-07-14T13:07:52.281Z,3.80
2018-07-14T13:10:29.209Z,12.13
2018-07-14T13:12:58.858Z,4.07
2018-07-14T13:15:28.605Z,4.63
2018-07-14T13:17:58.402Z,4.47
2018-07-14T13:20:30.631Z,4.97
2018-07-14T13:23:00.459Z,6.90
2018-07-14T13:25:30.209Z,4.30
2018-07-14T13:27:59.883Z,3.60
2018-07-14T13:30:29.717Z,3.60
2018-07-14T13:32:59.351Z,5.63
2018-07-14T13:35:36.505Z,4.30
2018-07-14T13:38:06.232Z,4.83
2018-07-14T13:40:36.001Z,3.90
2018-07-14T13:43:05.539Z,3.73
2018-07-14T13:45:42.268Z,5.53
2018-07-14T13:48:12.000Z,4.37
2018-07-14T13:50:41.752Z,3.53
2018-07-14T13:53:11.269Z,4.87
2018-07-14T13:55:40.849Z,4.47
2018-07-14T13:58:24.514Z,5.60
2018-07-14T14:00:54.720Z,4.00
2018-07-14T14:03:24.260Z,8.43
2018-07-14T14:06:21.522Z,5.20
2018-07-14T14:08:51.113Z,4.27
2018-07-14T14:11:20.687Z,3.63
2018-07-14T14:13:50.695Z,3.83
2018-07-14T14:16:20.173Z,4.67
2018-07-14T14:18:49.880Z,5.50
2018-07-14T14:21:22.288Z,5.27
2018-07-14T14:23:51.821Z,4.37
2018-07-14T14:26:21.533Z,4.63
2018-07-14T14:28:51.103Z,3.90
2018-07-14T14:31:24.824Z,3.87
2018-07-14T14:33:54.367Z,4.97
2018-07-14T14:36:23.930Z,4.47
2018-07-14T14:38:53.517Z,5.50
2018-07-14T14:41:37.246Z,4.60
2018-07-14T14:44:06.850Z,3.93
2018-07-14T14:46:36.757Z,3.57
2018-07-14T14:49:06.266Z,3.63
2018-07-14T14:51:36.597Z,4.40
2018-07-14T14:54:06.402Z,4.03
2018-07-14T14:56:36.238Z,3.50
2018-07-14T14:59:06.026Z,4.30
2018-07-14T15:01:36.294Z,5.77
2018-07-14T15:04:06.166Z,4.27
2018-07-14T15:06:36.386Z,4.27
2018-07-14T15:09:06.671Z,3.83
2018-07-14T15:11:36.457Z,3.50
2018-07-14T15:14:08.384Z,4.27
2018-07-14T15:16:38.182Z,4.00
2018-07-14T15:19:07.931Z,4.53
2018-07-14T15:21:38.945Z,3.77
2018-07-14T15:24:08.554Z,4.20
2018-07-14T15:26:38.288Z,4.80
2018-07-14T15:29:09.309Z,4.33
2018-07-14T15:31:39.114Z,4.03
2018-07-14T15:34:08.609Z,4.63
2018-07-14T15:36:38.608Z,4.00
2018-07-14T15:39:08.793Z,7.03
2018-07-14T15:41:38.883Z,5.70
2018-07-14T15:44:09.971Z,3.87
2018-07-14T15:46:40.674Z,4.63
2018-07-14T15:49:10.341Z,4.10
2018-07-14T15:51:39.990Z,4.93
2018-07-14T15:54:10.090Z,4.40
2018-07-14T15:56:40.020Z,4.80
2018-07-14T16:02:08.762Z,4.80
2018-07-14T16:04:38.627Z,3.80
2018-07-14T16:07:08.385Z,8.33
2018-07-14T16:09:38.780Z,4.07
2018-07-14T16:12:14.505Z,4.07
2018-07-14T16:14:44.100Z,3.90
2018-07-14T16:17:13.637Z,55.10
2018-07-14T16:19:43.229Z,34.27
2018-07-14T16:22:17.489Z,4.53
2018-07-14T16:24:47.039Z,5.00
2018-07-14T16:27:16.723Z,4.50
2018-07-14T16:29:47.144Z,4.80
2018-07-14T16:32:17.281Z,4.27
2018-07-14T16:34:46.861Z,4.63
2018-07-14T16:37:16.337Z,18.83
2018-07-14T16:39:45.927Z,5.77
2018-07-14T16:42:15.581Z,6.70
2018-07-14T16:44:52.330Z,6.30
2018-07-14T16:47:22.931Z,5.70
2018-07-14T16:49:53.449Z,6.27
2018-07-14T16:52:23.071Z,4.30
2018-07-14T16:54:54.244Z,5.20
2018-07-14T16:57:23.725Z,5.00
2018-07-14T16:59:53.251Z,4.60
2018-07-14T17:02:22.937Z,4.10
2018-07-14T17:04:53.739Z,8.10
2018-07-14T17:07:23.803Z,4.97
2018-07-14T17:09:54.182Z,5.20
2018-07-14T17:12:23.679Z,7.30
2018-07-14T17:14:53.514Z,4.87
2018-07-14T17:17:23.223Z,4.80
2018-07-14T17:22:50.093Z,5.53
2018-07-14T17:25:19.895Z,5.40
2018-07-14T17:27:49.489Z,5.03
2018-07-14T17:30:19.277Z,14.57
2018-07-14T17:32:51.255Z,12.43
2018-07-14T17:35:21.077Z,5.70
2018-07-14T17:37:50.589Z,5.70
2018-07-14T17:40:20.220Z,5.57
2018-07-14T17:42:50.166Z,6.03
2018-07-14T17:45:20.323Z,8.50
2018-07-14T17:51:03.331Z,79.83
2018-07-14T17:53:33.183Z,224.40
2018-07-14T17:56:03.000Z,112.93
2018-07-14T17:58:33.365Z,74.13
2018-07-14T18:01:05.698Z,29.23
2018-07-14T18:03:35.732Z,6.80
2018-07-14T18:06:05.617Z,7.50
2018-07-14T18:08:35.564Z,6.00
2018-07-14T18:11:05.983Z,5.23
2018-07-14T18:13:35.686Z,5.33
2018-07-14T18:16:24.399Z,5.33
2018-07-14T18:18:54.157Z,5.60
2018-07-14T18:21:23.813Z,5.67
2018-07-14T18:23:53.469Z,10.80
2018-07-14T18:26:23.130Z,7.07
2018-07-14T18:28:52.898Z,6.17
2018-07-14T18:31:27.589Z,6.33
2018-07-14T18:33:57.328Z,5.97
2018-07-14T18:36:26.917Z,9.50
2018-07-14T18:38:56.644Z,8.23
2018-07-14T18:41:26.728Z,6.00
2018-07-14T18:43:56.810Z,6.60
2018-07-14T18:46:26.556Z,6.93
2018-07-14T18:48:56.090Z,6.07
2018-07-14T18:51:25.651Z,6.93
2018-07-14T18:53:57.828Z,6.23
2018-07-14T18:56:27.968Z,8.73
2018-07-14T18:59:01.558Z,9.93
2018-07-14T19:01:31.277Z,7.10
2018-07-14T19:04:00.895Z,8.67
2018-07-14T19:06:30.906Z,6.40
2018-07-14T19:12:07.170Z,4.77
2018-07-14T19:14:36.637Z,5.80
2018-07-14T19:17:06.296Z,6.33
2018-07-14T19:19:36.818Z,6.00
2018-07-14T19:22:07.851Z,6.43
2018-07-14T19:24:37.406Z,7.90
2018-07-14T19:27:07.857Z,8.37
2018-07-14T19:29:38.057Z,6.90
2018-07-14T19:32:08.453Z,6.57
2018-07-14T19:34:38.154Z,5.77
2018-07-14T19:37:07.881Z,6.23
2018-07-14T19:39:37.560Z,5.47
2018-07-14T19:42:08.090Z,6.40
2018-07-14T19:47:31.838Z,6.33
2018-07-14T19:50:01.563Z,8.53
2018-07-14T19:52:31.343Z,5.90
2018-07-14T19:55:02.113Z,6.10
2018-07-14T19:57:31.783Z,7.37
2018-07-14T20:00:01.635Z,6.07
2018-07-14T20:02:33.090Z,9.40
2018-07-14T20:05:03.677Z,7.30
2018-07-14T20:07:33.648Z,7.90
2018-07-14T20:10:03.791Z,6.73
2018-07-14T20:12:33.530Z,7.40
2018-07-14T20:15:03.436Z,6.73
2018-07-14T20:17:39.871Z,6.27
2018-07-14T20:20:10.609Z,6.50
2018-07-14T20:22:40.650Z,6.13
2018-07-14T20:25:10.351Z,7.50
2018-07-14T20:27:42.613Z,7.00
2018-07-14T20:30:12.435Z,8.93
2018-07-14T20:32:42.314Z,8.23
2018-07-14T20:35:11.879Z,7.97
2018-07-14T20:37:55.294Z,7.00
2018-07-14T20:40:25.001Z,7.80
2018-07-14T20:42:54.791Z,10.90
2018-07-14T20:45:29.265Z,7.27
2018-07-14T20:47:59.160Z,8.10
2018-07-14T20:50:28.839Z,7.90
2018-07-14T20:52:58.457Z,7.47
2018-07-14T20:55:36.951Z,7.70
2018-07-14T20:58:06.849Z,9.57
2018-07-14T21:00:36.537Z,7.60
2018-07-14T21:03:06.375Z,8.90
2018-07-14T21:05:35.988Z,9.37
2018-07-14T21:08:07.070Z,8.57
2018-07-14T21:10:36.993Z,10.10
2018-07-14T21:13:06.676Z,10.50
2018-07-14T21:15:36.533Z,8.47
2018-07-14T21:18:06.187Z,10.13
2018-07-14T21:20:37.105Z,10.93
2018-07-14T21:23:06.670Z,8.70
2018-07-14T21:25:36.417Z,10.17
2018-07-14T21:28:05.935Z,10.93
2018-07-14T21:30:37.961Z,9.30
2018-07-14T21:33:07.902Z,9.30
2018-07-14T21:35:37.459Z,9.67
2018-07-14T21:38:07.672Z,10.10
2018-07-14T21:40:37.962Z,11.37
2018-07-14T21:43:07.669Z,11.00
2018-07-14T21:45:38.563Z,9.60
2018-07-14T21:48:08.729Z,10.37
2018-07-14T21:50:38.637Z,9.80
2018-07-14T21:53:08.400Z,9.27
2018-07-14T21:55:38.117Z,10.80
2018-07-14T21:58:08.433Z,9.40
2018-07-14T22:00:43.501Z,9.57
2018-07-14T22:03:13.034Z,10.10
2018-07-14T22:05:42.659Z,9.93
2018-07-14T22:08:12.330Z,10.13
2018-07-14T22:10:42.055Z,9.20
2018-07-14T22:13:12.121Z,10.30
2018-07-14T22:15:44.498Z,9.10
2018-07-14T22:18:14.049Z,10.10
2018-07-14T22:20:43.778Z,8.77
2018-07-14T22:23:13.519Z,10.23
2018-07-14T22:25:46.052Z,9.83
2018-07-14T22:28:15.719Z,9.83
2018-07-14T22:30:45.428Z,9.43
2018-07-14T22:33:15.576Z,11.67
2018-07-14T22:35:45.837Z,10.50
2018-07-14T22:38:15.415Z,10.47
2018-07-14T22:40:46.913Z,11.00
2018-07-14T22:43:16.329Z,12.57
2018-07-14T22:45:46.431Z,10.40
2018-07-14T22:48:16.114Z,10.63
2018-07-14T22:50:46.267Z,15.67
2018-07-14T22:53:53.202Z,10.53
2018-07-14T22:56:22.989Z,9.60
2018-07-14T22:58:54.234Z,9.70
2018-07-14T23:01:24.417Z,9.57
2018-07-14T23:03:54.098Z,11.10
2018-07-14T23:06:24.114Z,9.07
2018-07-14T23:09:02.109Z,10.10
2018-07-14T23:11:32.755Z,9.80
2018-07-14T23:14:03.315Z,10.30
2018-07-14T23:16:33.299Z,12.63
2018-07-14T23:19:07.209Z,11.00
2018-07-14T23:21:36.763Z,11.10
2018-07-14T23:30:12.729Z,10.20
2018-07-14T23:32:42.591Z,11.17
2018-07-14T23:35:16.961Z,12.37
2018-07-14T23:37:46.725Z,10.00
2018-07-14T23:40:16.845Z,11.23
2018-07-14T23:42:46.501Z,10.40
2018-07-14T23:45:16.060Z,12.47
2018-07-14T23:47:45.649Z,11.77
2018-07-14T23:50:15.607Z,11.50
2018-07-14T23:52:45.369Z,10.97
2018-07-14T23:55:14.963Z,10.27
2018-07-14T23:57:44.389Z,11.27
